Time;durP1;ratioP1;P1;durP2;ratioP2;P2;SDS_P1;SDS_P2;PMS_P1;PMS_P2;Temp;Humidity;BMP_temperature;BMP_pressure;BME280_temperature;BME280_humidity;BME280_pressure;Samples;Min_cycle;Max_cycle;Signal;HPM_P1;HPM_P2
2023/07/23 00:01:11;;;;;;;8.20;4.50;;;18.40;14.70;;;;;;5010561;28;20485;-63
2023/07/23 00:03:38;;;;;;;8.90;3.87;;;18.40;14.90;;;;;;5004148;28;21063;-63
2023/07/23 00:06:05;;;;;;;7.10;3.83;;;18.40;15.00;;;;;;5012476;28;20468;-64
2023/07/23 00:08:32;;;;;;;7.17;3.70;;;18.30;15.00;;;;;;5012136;28;20495;-63
2023/07/23 00:11:01;;;;;;;6.83;3.90;;;18.30;15.10;;;;;;5009264;28;20460;-64
2023/07/23 00:13:27;;;;;;;7.33;4.10;;;18.30;15.40;;;;;;5011131;28;20562;-64
2023/07/23 00:15:54;;;;;;;9.10;4.93;;;18.20;15.50;;;;;;5008964;28;22239;-64
2023/07/23 00:18:21;;;;;;;8.40;4.00;;;18.20;15.60;;;;;;5011826;28;20463;-64
2023/07/23 00:20:48;;;;;;;7.23;3.93;;;18.20;15.70;;;;;;5016060;28;20478;-63
2023/07/23 00:23:14;;;;;;;6.53;3.90;;;18.20;15.90;;;;;;5007627;28;20808;-63
2023/07/23 00:25:42;;;;;;;7.53;3.90;;;18.20;16.10;;;;;;5012429;28;20471;-63
2023/07/23 00:28:10;;;;;;;6.63;3.80;;;18.10;16.20;;;;;;5010352;28;20465;-63
2023/07/23 00:30:36;;;;;;;8.43;4.50;;;18.10;16.30;;;;;;5006329;28;20798;-63
2023/07/23 00:33:03;;;;;;;7.37;4.23;;;18.10;16.20;;;;;;5011510;28;20475;-64
2023/07/23 00:35:30;;;;;;;15.10;4.50;;;18.00;16.30;;;;;;5008792;28;21038;-63
2023/07/23 00:37:56;;;;;;;7.90;4.70;;;18.00;16.40;;;;;;5013619;28;20459;-63
2023/07/23 00:40:23;;;;;;;6.50;3.93;;;18.00;16.60;;;;;;5006403;28;20460;-63
2023/07/23 00:42:50;;;;;;;8.23;4.97;;;18.00;16.50;;;;;;5010642;28;20466;-63
2023/07/23 00:45:19;;;;;;;8.20;3.80;;;18.00;16.60;;;;;;5008276;28;20485;-63
2023/07/23 00:47:46;;;;;;;8.30;4.30;;;18.00;16.70;;;;;;5013339;28;20526;-64
2023/07/23 00:50:14;;;;;;;8.80;4.80;;;18.00;16.80;;;;;;5007543;28;20467;-64
2023/07/23 00:52:41;;;;;;;6.90;4.23;;;17.90;16.90;;;;;;5004856;28;20472;-64
2023/07/23 00:55:09;;;;;;;8.80;4.87;;;17.90;17.00;;;;;;5009654;28;20487;-64
2023/07/23 00:57:36;;;;;;;8.10;4.87;;;17.90;17.20;;;;;;5010611;28;20976;-63
2023/07/23 01:00:05;;;;;;;9.20;4.27;;;17.80;17.30;;;;;;5012278;28;20978;-63
2023/07/23 01:02:33;;;;;;;7.67;4.00;;;17.80;17.60;;;;;;5012406;28;20475;-63
2023/07/23 01:05:00;;;;;;;7.73;4.63;;;17.80;17.60;;;;;;5007350;28;20481;-63
2023/07/23 01:07:29;;;;;;;8.40;5.00;;;17.80;17.80;;;;;;5007464;28;20809;-63
2023/07/23 01:09:56;;;;;;;7.27;4.30;;;17.70;17.80;;;;;;5016741;28;20471;-64
2023/07/23 01:12:23;;;;;;;7.97;4.23;;;17.70;18.10;;;;;;5004903;28;20462;-63
2023/07/23 01:14:50;;;;;;;10.07;4.90;;;17.70;18.40;;;;;;5011837;28;20480;-64
2023/07/23 01:17:19;;;;;;;10.10;4.90;;;17.70;18.30;;;;;;5013894;28;20471;-64
2023/07/23 01:19:58;;;;;;;8.00;4.33;;;17.70;18.60;;;;;;5014415;28;20476;-64
2023/07/23 01:22:26;;;;;;;8.37;4.50;;;17.60;18.70;;;;;;5011508;28;20471;-63
2023/07/23 01:24:53;;;;;;;8.80;3.97;;;17.60;19.10;;;;;;5011131;28;20869;-63
2023/07/23 01:27:19;;;;;;;7.70;4.63;;;17.60;19.10;;;;;;5009496;28;20494;-64
2023/07/23 01:29:46;;;;;;;8.40;4.60;;;17.50;19.30;;;;;;5010488;28;20460;-64
2023/07/23 01:32:13;;;;;;;9.50;4.67;;;17.50;19.30;;;;;;5009448;28;20475;-64
2023/07/23 01:34:39;;;;;;;11.10;5.30;;;17.60;19.30;;;;;;5004998;28;20491;-63
2023/07/23 01:37:07;;;;;;;7.67;5.20;;;17.60;19.40;;;;;;5006601;28;20776;-64
2023/07/23 01:39:36;;;;;;;9.70;5.40;;;17.60;19.40;;;;;;5005732;28;20460;-64
2023/07/23 01:42:04;;;;;;;9.60;4.97;;;17.50;19.70;;;;;;5002333;28;20960;-64
2023/07/23 01:44:31;;;;;;;7.80;4.77;;;17.50;19.70;;;;;;5006834;28;20666;-64
2023/07/23 01:46:58;;;;;;;9.27;4.20;;;17.50;19.90;;;;;;5004526;28;20472;-63
2023/07/23 01:49:24;;;;;;;7.40;4.03;;;17.40;19.90;;;;;;5007048;28;20467;-64
2023/07/23 01:51:51;;;;;;;8.23;4.33;;;17.50;20.00;;;;;;5006299;28;20919;-64
2023/07/23 01:54:18;;;;;;;7.37;4.30;;;17.50;20.00;;;;;;5004762;28;20487;-63
2023/07/23 01:56:47;;;;;;;8.67;4.60;;;17.40;20.00;;;;;;5005697;28;20464;-64
2023/07/23 01:59:14;;;;;;;10.00;4.93;;;17.30;20.40;;;;;;5006486;28;20471;-64
2023/07/23 02:01:40;;;;;;;10.30;4.63;;;17.30;20.50;;;;;;5000706;28;20484;-63
2023/07/23 02:04:07;;;;;;;7.80;4.47;;;17.30;20.50;;;;;;5009410;28;20524;-63
2023/07/23 02:06:36;;;;;;;10.87;4.73;;;17.30;20.70;;;;;;5006227;28;20497;-63
2023/07/23 02:09:03;;;;;;;7.83;4.67;;;17.20;20.90;;;;;;5005445;23;20493;-64
2023/07/23 02:11:30;;;;;;;8.80;4.90;;;17.20;20.70;;;;;;4984190;28;20898;-64
2023/07/23 02:13:58;;;;;;;10.83;5.47;;;17.20;21.10;;;;;;4981987;28;20482;-65
2023/07/23 02:16:24;;;;;;;10.63;5.20;;;17.10;21.60;;;;;;4987391;28;20896;-65
2023/07/23 02:18:51;;;;;;;7.80;5.20;;;17.10;21.30;;;;;;4989610;28;20467;-65
2023/07/23 02:21:18;;;;;;;9.23;5.00;;;17.10;21.50;;;;;;4988686;28;20999;-65
2023/07/23 02:23:45;;;;;;;7.60;4.30;;;17.10;21.50;;;;;;4982992;28;20489;-65
2023/07/23 02:26:12;;;;;;;7.83;4.67;;;17.00;21.70;;;;;;4990448;28;20467;-65
2023/07/23 02:28:40;;;;;;;8.73;4.33;;;17.00;22.00;;;;;;4982545;28;20988;-65
2023/07/23 02:31:09;;;;;;;8.07;4.80;;;16.90;22.20;;;;;;4992927;28;20480;-65
2023/07/23 02:33:35;;;;;;;9.40;5.40;;;16.90;22.40;;;;;;5006712;28;20549;-65
2023/07/23 02:36:02;;;;;;;10.50;5.20;;;16.90;22.60;;;;;;5009766;28;20962;-65
2023/07/23 02:38:29;;;;;;;8.10;5.03;;;16.90;22.80;;;;;;5014088;28;20463;-65
2023/07/23 02:40:56;;;;;;;9.53;5.03;;;16.90;23.10;;;;;;5014764;28;21240;-66
2023/07/23 02:43:23;;;;;;;8.03;4.60;;;16.90;23.50;;;;;;5009504;28;20520;-66
2023/07/23 02:45:50;;;;;;;10.23;4.87;;;16.80;23.70;;;;;;5012579;28;20492;-65
2023/07/23 02:48:18;;;;;;;8.40;5.07;;;16.80;24.00;;;;;;5010004;28;20517;-65
2023/07/23 02:50:44;;;;;;;9.80;4.93;;;16.70;24.00;;;;;;5011095;28;20472;-65
2023/07/23 02:53:11;;;;;;;11.10;5.07;;;16.70;24.00;;;;;;5005743;28;20475;-66
2023/07/23 02:55:38;;;;;;;8.17;5.07;;;16.70;24.20;;;;;;5011486;28;20463;-66
2023/07/23 02:58:05;;;;;;;9.13;4.20;;;16.70;24.30;;;;;;5011112;28;20466;-65
2023/07/23 03:00:31;;;;;;;10.37;5.17;;;16.60;24.20;;;;;;5009592;28;20468;-65
2023/07/23 03:02:58;;;;;;;11.77;5.07;;;16.60;24.60;;;;;;5005926;28;20483;-64
2023/07/23 03:05:26;;;;;;;10.20;5.20;;;16.50;24.90;;;;;;5012068;28;20490;-65
2023/07/23 03:07:53;;;;;;;17.83;5.40;;;16.50;24.90;;;;;;5012315;28;20472;-65
2023/07/23 03:10:20;;;;;;;9.00;5.20;;;16.50;25.00;;;;;;5012091;28;20499;-65
2023/07/23 03:12:47;;;;;;;8.10;4.50;;;16.50;25.30;;;;;;5006670;28;21092;-65
2023/07/23 03:15:13;;;;;;;8.33;5.23;;;16.40;24.90;;;;;;5010749;28;20494;-65
2023/07/23 03:17:40;;;;;;;8.60;5.20;;;16.40;25.40;;;;;;5009034;28;20974;-65
2023/07/23 03:20:10;;;;;;;7.47;4.80;;;16.40;25.60;;;;;;5008961;28;20476;-66
2023/07/23 03:22:38;;;;;;;9.50;5.60;;;16.40;25.60;;;;;;5007783;28;20465;-65
2023/07/23 03:25:06;;;;;;;10.17;6.00;;;16.30;25.80;;;;;;5010165;28;20491;-65
2023/07/23 03:27:33;;;;;;;8.87;5.47;;;16.30;26.20;;;;;;5011281;28;20495;-65
2023/07/23 03:29:59;;;;;;;9.80;5.80;;;16.20;26.30;;;;;;5006595;28;20506;-66
2023/07/23 03:32:26;;;;;;;10.20;5.93;;;16.20;26.40;;;;;;5005133;28;20479;-65
2023/07/23 03:34:53;;;;;;;12.67;6.57;;;16.10;26.60;;;;;;5013573;28;20836;-65
2023/07/23 03:37:19;;;;;;;12.10;5.90;;;16.10;27.20;;;;;;5010471;28;20471;-66
2023/07/23 03:39:47;;;;;;;11.07;6.57;;;16.10;27.20;;;;;;5007193;28;20471;-65
2023/07/23 03:42:14;;;;;;;10.13;6.97;;;16.00;27.50;;;;;;5009273;28;20475;-67
2023/07/23 03:44:41;;;;;;;10.93;6.30;;;16.00;27.50;;;;;;5005234;28;21142;-65
2023/07/23 03:47:13;;;;;;;11.60;5.93;;;16.00;27.90;;;;;;5007853;28;21030;-65
2023/07/23 03:49:40;;;;;;;7.93;5.40;;;15.90;28.30;;;;;;5009221;28;20467;-65
2023/07/23 03:52:07;;;;;;;9.53;6.30;;;15.90;28.40;;;;;;5008793;28;20476;-65
2023/07/23 03:54:34;;;;;;;10.20;7.10;;;15.90;28.70;;;;;;5010082;28;20599;-64
2023/07/23 03:57:03;;;;;;;11.53;6.37;;;15.80;28.90;;;;;;5006572;28;20692;-65
2023/07/23 03:59:30;;;;;;;8.43;6.57;;;15.80;29.00;;;;;;5009061;28;20464;-65
2023/07/23 04:01:57;;;;;;;10.40;6.67;;;15.80;29.40;;;;;;5009144;28;20827;-66
2023/07/23 04:04:24;;;;;;;15.00;6.47;;;15.80;29.40;;;;;;5004492;28;20492;-65
2023/07/23 04:06:51;;;;;;;10.60;5.97;;;15.80;29.40;;;;;;5009385;28;20475;-64
2023/07/23 04:09:18;;;;;;;11.80;6.33;;;15.80;29.60;;;;;;5008256;28;20476;-65
2023/07/23 04:11:45;;;;;;;10.73;6.17;;;15.80;29.60;;;;;;5004364;28;20475;-64
2023/07/23 04:14:13;;;;;;;11.53;5.37;;;15.80;29.60;;;;;;5005636;28;20523;-64
2023/07/23 04:16:40;;;;;;;12.27;6.57;;;15.80;30.20;;;;;;5008885;28;20460;-65
2023/07/23 04:19:07;;;;;;;8.63;5.33;;;15.80;30.40;;;;;;5008827;28;20918;-64
2023/07/23 04:21:33;;;;;;;9.00;5.43;;;15.80;30.70;;;;;;5009007;28;20478;-65
2023/07/23 04:24:01;;;;;;;11.93;6.53;;;15.90;30.30;;;;;;5000812;28;20487;-65
2023/07/23 04:26:29;;;;;;;9.53;6.27;;;15.90;30.40;;;;;;5006170;28;20936;-65
2023/07/23 04:28:55;;;;;;;11.00;6.47;;;16.00;30.40;;;;;;5007731;28;20476;-65
2023/07/23 04:31:24;;;;;;;11.10;6.27;;;16.00;30.20;;;;;;5008265;28;20485;-65
2023/07/23 04:33:51;;;;;;;8.47;5.60;;;16.10;30.20;;;;;;5004464;28;20490;-64
2023/07/23 04:36:17;;;;;;;9.30;5.67;;;16.20;30.30;;;;;;5009539;28;20482;-65
2023/07/23 04:38:44;;;;;;;9.13;5.40;;;16.40;30.20;;;;;;5008823;28;20487;-65
2023/07/23 04:41:12;;;;;;;9.17;6.67;;;16.60;29.60;;;;;;5004820;28;20472;-65
2023/07/23 04:43:40;;;;;;;9.87;5.03;;;16.90;29.10;;;;;;5007721;28;20937;-65
2023/07/23 04:46:07;;;;;;;11.10;5.60;;;17.30;28.10;;;;;;5007355;28;20476;-65
2023/07/23 04:48:36;;;;;;;7.70;5.00;;;17.40;27.10;;;;;;5003952;28;20874;-66
2023/07/23 04:51:04;;;;;;;10.37;5.20;;;17.40;27.00;;;;;;5003670;28;20556;-66
2023/07/23 04:53:31;;;;;;;9.27;4.97;;;17.50;27.20;;;;;;5006105;28;20514;-65
2023/07/23 04:56:00;;;;;;;8.60;4.70;;;17.80;27.00;;;;;;5003751;28;20471;-65
2023/07/23 04:58:27;;;;;;;8.67;4.73;;;18.40;25.70;;;;;;5007908;28;20471;-65
2023/07/23 05:00:54;;;;;;;9.50;5.30;;;19.20;23.80;;;;;;5002695;28;20490;-65
2023/07/23 05:03:21;;;;;;;8.77;4.90;;;20.60;20.20;;;;;;5003701;28;20851;-65
2023/07/23 05:05:50;;;;;;;6.87;4.00;;;22.20;16.10;;;;;;5007324;28;20865;-66
2023/07/23 05:08:19;;;;;;;7.30;4.30;;;23.80;12.30;;;;;;5005185;28;20471;-65
2023/07/23 05:10:46;;;;;;;6.50;4.27;;;25.00;9.20;;;;;;5007297;28;21132;-65
2023/07/23 05:13:13;;;;;;;10.50;4.20;;;26.20;6.30;;;;;;5016882;28;20466;-65
2023/07/23 05:15:40;;;;;;;8.87;4.37;;;27.10;4.10;;;;;;5012127;28;20482;-65
2023/07/23 05:18:06;;;;;;;8.30;4.37;;;28.10;1.90;;;;;;5004112;28;20467;-66
2023/07/23 05:20:33;;;;;;;8.73;4.40;;;28.90;1.00;;;;;;5005443;28;20471;-65
2023/07/23 05:23:01;;;;;;;7.70;4.20;;;29.70;1.00;;;;;;5003961;28;20468;-65
2023/07/23 05:25:28;;;;;;;6.73;3.70;;;30.50;1.00;;;;;;5011510;28;20830;-66
2023/07/23 05:27:55;;;;;;;6.63;3.97;;;31.20;1.00;;;;;;5003404;28;20836;-66
2023/07/23 05:30:21;;;;;;;6.97;4.10;;;31.80;1.00;;;;;;5004879;28;20463;-66
2023/07/23 05:32:48;;;;;;;7.30;4.20;;;32.50;1.00;;;;;;5007818;28;20966;-66
2023/07/23 05:35:15;;;;;;;8.50;4.70;;;33.10;1.00;;;;;;5005940;28;21135;-66
2023/07/23 05:37:42;;;;;;;6.13;3.77;;;33.70;1.00;;;;;;5005354;28;20471;-66
2023/07/23 05:40:10;;;;;;;7.00;3.73;;;34.30;1.00;;;;;;5007422;28;20973;-66
2023/07/23 05:42:37;;;;;;;6.57;3.20;;;34.80;1.00;;;;;;5003922;28;20459;-66
2023/07/23 05:45:04;;;;;;;6.93;4.13;;;35.40;1.00;;;;;;5001188;28;20488;-66
2023/07/23 05:47:31;;;;;;;6.93;3.17;;;35.90;1.00;;;;;;5003875;28;20467;-67
2023/07/23 05:49:58;;;;;;;5.60;3.63;;;36.50;1.00;;;;;;5007709;28;20463;-66
2023/07/23 05:52:25;;;;;;;7.23;4.03;;;36.80;1.00;;;;;;5004319;28;20460;-67
2023/07/23 05:54:51;;;;;;;6.53;3.43;;;37.20;1.00;;;;;;5001594;28;20499;-66
2023/07/23 05:57:19;;;;;;;5.90;3.70;;;37.40;1.00;;;;;;5003543;28;21264;-67
2023/07/23 05:59:46;;;;;;;6.87;3.53;;;37.70;1.00;;;;;;5006380;28;20471;-66
2023/07/23 06:02:13;;;;;;;5.70;3.40;;;38.00;1.00;;;;;;5002939;28;20482;-66
2023/07/23 06:04:41;;;;;;;6.40;4.17;;;38.60;1.00;;;;;;5001429;28;21225;-66
2023/07/23 06:07:07;;;;;;;7.17;3.70;;;39.10;1.00;;;;;;5005511;28;20465;-67
2023/07/23 06:09:34;;;;;;;5.73;4.00;;;39.60;1.00;;;;;;5009403;28;20475;-67
2023/07/23 06:12:01;;;;;;;6.17;3.57;;;40.20;1.00;;;;;;5005829;28;20468;-67
2023/07/23 06:14:30;;;;;;;6.20;3.90;;;40.90;1.00;;;;;;5004168;28;20498;-67
2023/07/23 06:16:57;;;;;;;6.07;3.50;;;41.40;1.00;;;;;;5007492;28;20471;-67
2023/07/23 06:19:23;;;;;;;6.03;3.20;;;41.90;1.00;;;;;;5005965;28;20470;-67
2023/07/23 06:21:50;;;;;;;5.83;3.50;;;42.30;1.00;;;;;;5007034;28;20471;-66
2023/07/23 06:24:17;;;;;;;5.50;3.70;;;42.80;1.00;;;;;;5007813;28;20496;-66
2023/07/23 06:26:43;;;;;;;11.90;4.07;;;43.10;1.00;;;;;;5007614;28;20479;-66
2023/07/23 06:29:10;;;;;;;5.80;3.20;;;43.40;1.00;;;;;;5005834;28;20467;-67
2023/07/23 06:31:38;;;;;;;5.00;3.03;;;43.90;1.00;;;;;;5006277;28;20475;-67
2023/07/23 06:34:05;;;;;;;5.20;3.50;;;44.40;1.00;;;;;;5005565;28;20491;-66
2023/07/23 06:36:32;;;;;;;4.70;3.10;;;44.70;1.00;;;;;;5007806;28;20549;-67
2023/07/23 06:38:59;;;;;;;6.40;3.17;;;45.20;1.00;;;;;;5007512;28;20463;-67
2023/07/23 06:41:27;;;;;;;5.03;2.77;;;45.70;1.00;;;;;;5007531;28;20467;-67
2023/07/23 06:43:54;;;;;;;6.97;3.57;;;46.10;1.00;;;;;;5006594;28;20559;-67
2023/07/23 06:46:20;;;;;;;4.80;3.37;;;46.40;1.00;;;;;;5008329;28;20483;-67
2023/07/23 06:48:49;;;;;;;5.30;3.33;;;46.70;1.00;;;;;;5008462;28;20470;-66
2023/07/23 06:51:15;;;;;;;5.07;3.10;;;47.00;1.00;;;;;;5008001;28;20469;-67
2023/07/23 06:53:43;;;;;;;5.27;3.17;;;47.20;1.00;;;;;;5009304;28;20496;-66
2023/07/23 06:56:12;;;;;;;5.83;3.60;;;47.50;1.00;;;;;;5005449;28;20464;-66
2023/07/23 06:58:39;;;;;;;6.90;3.57;;;47.80;1.00;;;;;;5006676;28;20468;-68
2023/07/23 07:01:08;;;;;;;5.00;3.03;;;48.10;1.00;;;;;;5007833;28;21034;-67
2023/07/23 07:03:34;;;;;;;5.97;3.20;;;48.30;1.00;;;;;;5006113;28;20563;-67
2023/07/23 07:06:03;;;;;;;4.67;3.10;;;48.70;1.00;;;;;;5003409;28;20494;-66
2023/07/23 07:08:31;;;;;;;5.10;2.90;;;49.00;1.00;;;;;;5007688;28;20591;-67
2023/07/23 07:10:59;;;;;;;4.67;2.77;;;49.40;1.00;;;;;;5008389;28;20475;-67
2023/07/23 07:13:26;;;;;;;5.30;3.40;;;49.80;1.00;;;;;;4999468;28;20576;-67
2023/07/23 07:15:53;;;;;;;4.83;2.80;;;50.30;1.00;;;;;;5006333;28;20472;-66
2023/07/23 07:18:20;;;;;;;5.23;2.90;;;50.80;1.00;;;;;;5002564;28;20467;-67
2023/07/23 07:20:54;;;;;;;4.80;2.23;;;51.10;1.00;;;;;;5006549;28;21101;-66
2023/07/23 07:23:22;;;;;;;5.60;3.03;;;51.60;1.00;;;;;;5005220;28;20467;-66
2023/07/23 07:25:49;;;;;;;4.47;2.70;;;51.00;1.00;;;;;;4999748;28;21021;-67
2023/07/23 07:28:15;;;;;;;5.00;2.70;;;50.90;1.00;;;;;;5003474;28;20543;-66
2023/07/23 07:30:42;;;;;;;5.90;3.23;;;50.40;1.00;;;;;;5007632;28;20474;-66
2023/07/23 07:33:09;;;;;;;4.80;2.73;;;49.60;1.00;;;;;;5007636;28;20895;-65
2023/07/23 07:35:36;;;;;;;5.30;2.90;;;49.70;1.00;;;;;;4999288;28;20478;-64
2023/07/23 07:38:03;;;;;;;5.70;3.20;;;50.50;1.00;;;;;;5002997;28;20473;-65
2023/07/23 07:40:31;;;;;;;5.27;2.50;;;51.40;1.00;;;;;;5004178;28;20549;-65
2023/07/23 07:42:58;;;;;;;5.13;2.50;;;52.10;1.00;;;;;;5008846;28;20476;-64
2023/07/23 07:45:25;;;;;;;4.57;2.97;;;52.60;1.00;;;;;;4998066;28;20486;-65
2023/07/23 07:47:52;;;;;;;5.23;3.00;;;53.00;1.00;;;;;;5006331;28;20478;-65
2023/07/23 07:50:18;;;;;;;5.30;2.40;;;53.30;1.00;;;;;;5001605;28;20486;-65
2023/07/23 07:52:45;;;;;;;5.00;2.60;;;53.40;1.00;;;;;;5007497;28;20466;-65
2023/07/23 07:55:12;;;;;;;4.40;2.27;;;52.50;1.00;;;;;;5011257;28;20487;-65
2023/07/23 07:57:40;;;;;;;4.57;2.50;;;51.10;1.00;;;;;;5009704;28;20644;-65
2023/07/23 08:00:08;;;;;;;6.40;2.60;;;50.00;1.00;;;;;;5010452;28;20469;-65
2023/07/23 08:02:35;;;;;;;4.10;2.40;;;49.50;1.00;;;;;;5004959;28;20472;-65
2023/07/23 08:05:03;;;;;;;5.37;2.60;;;48.80;1.00;;;;;;5009051;28;20866;-65
2023/07/23 08:07:31;;;;;;;4.43;2.47;;;47.90;1.00;;;;;;4997359;28;20939;-65
2023/07/23 08:10:00;;;;;;;5.23;2.50;;;46.80;1.00;;;;;;5015748;28;20456;-64
2023/07/23 08:12:27;;;;;;;4.70;2.80;;;46.10;1.00;;;;;;5010884;28;20499;-64
2023/07/23 08:14:56;;;;;;;6.53;2.47;;;45.60;1.00;;;;;;5002727;28;21015;-65
2023/07/23 08:17:24;;;;;;;5.37;2.70;;;47.20;1.00;;;;;;5004677;28;20467;-65
2023/07/23 08:19:51;;;;;;;5.03;2.40;;;48.60;1.00;;;;;;5003610;28;20467;-65
2023/07/23 08:22:18;;;;;;;4.47;2.47;;;49.80;1.00;;;;;;5006774;28;20463;-65
2023/07/23 08:24:46;;;;;;;4.73;2.37;;;50.80;1.00;;;;;;5006294;28;20483;-65
2023/07/23 08:27:15;;;;;;;4.37;2.27;;;51.90;1.00;;;;;;5003362;28;20482;-65
2023/07/23 08:29:46;;;;;;;4.30;2.57;;;52.60;1.00;;;;;;5001176;28;20464;-65
2023/07/23 08:32:16;;;;;;;5.77;2.70;;;53.10;1.00;;;;;;5001775;28;20946;-65
2023/07/23 08:34:45;;;;;;;4.50;1.97;;;53.50;1.00;;;;;;5005331;28;20911;-64
2023/07/23 08:37:13;;;;;;;4.10;2.20;;;54.10;1.00;;;;;;5002627;28;20464;-65
2023/07/23 08:39:40;;;;;;;4.60;2.30;;;54.50;1.00;;;;;;5004799;28;20465;-65
2023/07/23 08:42:27;;;;;;;4.10;2.20;;;54.50;1.00;;;;;;5004396;28;20475;-65
2023/07/23 08:45:28;;;;;;;3.63;1.80;;;54.60;1.00;;;;;;4997322;28;20482;-65
2023/07/23 08:48:13;;;;;;;4.40;1.70;;;54.80;1.00;;;;;;5004022;28;22308;-65
2023/07/23 08:50:43;;;;;;;3.70;1.80;;;55.10;1.00;;;;;;5001983;28;20478;-66
2023/07/23 08:53:12;;;;;;;8.00;2.03;;;55.40;1.00;;;;;;5005564;28;20841;-66
2023/07/23 08:55:46;;;;;;;4.03;2.00;;;55.50;1.00;;;;;;5011870;28;20470;-66
2023/07/23 08:58:15;;;;;;;5.13;1.67;;;55.40;1.00;;;;;;4999480;28;21200;-65
2023/07/23 09:00:43;;;;;;;5.57;2.30;;;55.30;1.00;;;;;;5003186;28;20472;-65
2023/07/23 09:03:12;;;;;;;3.60;1.63;;;55.10;1.00;;;;;;5003844;28;20467;-65
2023/07/23 09:05:39;;;;;;;4.57;2.10;;;55.10;1.00;;;;;;5006944;28;20830;-65
2023/07/23 09:08:06;;;;;;;4.47;2.13;;;54.90;1.00;;;;;;5003815;28;20472;-65
2023/07/23 09:10:33;;;;;;;3.97;2.30;;;55.30;1.00;;;;;;5003199;28;20468;-65
2023/07/23 09:13:08;;;;;;;4.23;2.03;;;55.60;1.00;;;;;;5005754;28;20464;-65
2023/07/23 09:15:35;;;;;;;4.47;1.90;;;55.60;1.00;;;;;;4998696;28;20470;-64
2023/07/23 09:18:03;;;;;;;4.10;2.10;;;55.80;1.00;;;;;;5005203;28;20468;-65
2023/07/23 09:20:31;;;;;;;4.30;2.30;;;55.70;1.00;;;;;;5003070;28;20940;-65
2023/07/23 09:23:05;;;;;;;4.40;1.90;;;55.70;1.00;;;;;;4993720;28;20463;-66
2023/07/23 09:25:32;;;;;;;4.00;2.10;;;55.80;1.00;;;;;;5003728;28;20526;-67
2023/07/23 09:27:59;;;;;;;3.83;2.00;;;55.80;1.00;;;;;;4996116;28;20504;-65
2023/07/23 09:30:28;;;;;;;4.10;1.80;;;55.70;1.00;;;;;;5007167;28;20495;-65
2023/07/23 09:32:59;;;;;;;6.37;2.20;;;55.00;1.00;;;;;;5000419;28;21090;-65
2023/07/23 09:35:29;;;;;;;4.40;1.97;;;54.50;1.00;;;;;;5002247;28;20491;-67
2023/07/23 09:37:58;;;;;;;4.10;2.27;;;54.60;1.00;;;;;;5005713;28;20471;-65
2023/07/23 09:40:33;;;;;;;4.20;2.17;;;53.50;1.00;;;;;;5002928;28;20498;-65
2023/07/23 09:43:00;;;;;;;5.60;2.03;;;51.80;1.00;;;;;;5000476;28;20494;-65
2023/07/23 09:45:31;;;;;;;4.90;2.40;;;51.50;1.00;;;;;;5002876;28;20467;-66
2023/07/23 09:47:58;;;;;;;7.97;2.33;;;51.20;1.00;;;;;;5003791;28;20574;-66
2023/07/23 09:50:25;;;;;;;4.30;2.33;;;50.60;1.00;;;;;;5000208;28;20500;-65
2023/07/23 09:52:52;;;;;;;4.43;2.50;;;49.80;1.00;;;;;;5000606;28;20479;-65
2023/07/23 09:55:21;;;;;;;4.07;2.03;;;48.40;1.00;;;;;;5006718;28;20499;-65
2023/07/23 09:57:50;;;;;;;6.03;2.10;;;46.70;1.00;;;;;;5003901;28;20459;-65
2023/07/23 10:00:17;;;;;;;4.70;2.17;;;45.30;1.00;;;;;;5005514;28;20471;-67
2023/07/23 10:02:46;;;;;;;5.03;2.40;;;43.80;1.00;;;;;;5000922;28;20471;-65
2023/07/23 10:05:15;;;;;;;5.40;2.37;;;42.20;1.00;;;;;;5004734;28;20488;-65
2023/07/23 10:07:42;;;;;;;8.13;2.63;;;41.00;1.00;;;;;;5006529;28;20487;-68
2023/07/23 10:10:10;;;;;;;4.97;2.10;;;40.10;1.00;;;;;;5024320;23;20497;-64
2023/07/23 10:12:38;;;;;;;5.30;2.80;;;39.20;1.00;;;;;;5016776;28;20463;-64
2023/07/23 10:15:06;;;;;;;8.57;2.77;;;38.40;1.00;;;;;;5024287;28;20482;-63
2023/07/23 10:17:33;;;;;;;5.57;3.20;;;37.50;1.00;;;;;;5022447;28;20490;-64
2023/07/23 10:20:01;;;;;;;6.17;2.83;;;36.60;1.00;;;;;;5016902;28;20891;-64
2023/07/23 10:22:33;;;;;;;5.30;2.73;;;35.80;1.00;;;;;;5021306;28;20463;-63
2023/07/23 10:24:59;;;;;;;8.43;2.93;;;35.20;1.00;;;;;;5023276;28;20483;-63
2023/07/23 10:27:26;;;;;;;6.23;2.83;;;34.70;1.00;;;;;;5013533;28;20870;-63
2023/07/23 10:30:17;;;;;;;7.67;2.77;;;34.30;1.00;;;;;;5021054;28;20466;-63
2023/07/23 10:32:45;;;;;;;6.57;2.70;;;34.00;1.00;;;;;;5019928;28;20530;-64
2023/07/23 10:35:12;;;;;;;5.67;2.73;;;33.90;1.00;;;;;;5021715;28;20494;-63
2023/07/23 10:37:38;;;;;;;6.20;3.03;;;33.70;1.00;;;;;;5012754;28;20459;-63
2023/07/23 10:40:06;;;;;;;7.20;2.60;;;33.50;1.00;;;;;;5016933;28;20508;-63
2023/07/23 10:42:37;;;;;;;5.73;2.87;;;33.30;1.00;;;;;;5014357;28;20467;-63
2023/07/23 10:45:29;;;;;;;6.20;3.10;;;33.10;1.00;;;;;;5013696;28;20497;-63
2023/07/23 10:48:00;;;;;;;5.30;2.77;;;32.90;1.00;;;;;;5015773;28;20490;-62
2023/07/23 10:50:30;;;;;;;7.30;3.50;;;32.80;1.00;;;;;;5018165;28;21197;-63
2023/07/23 10:53:02;;;;;;;7.30;2.90;;;32.60;1.00;;;;;;5020790;28;20467;-62
2023/07/23 10:55:41;;;;;;;9.00;3.67;;;32.50;1.00;;;;;;5021958;28;20513;-63
2023/07/23 10:58:12;;;;;;;6.53;3.30;;;32.40;1.00;;;;;;5023982;28;20474;-62
2023/07/23 11:00:42;;;;;;;5.70;3.17;;;32.20;1.00;;;;;;5021817;28;21014;-62
2023/07/23 11:03:13;;;;;;;8.27;4.20;;;32.00;1.00;;;;;;5021460;28;20462;-62
2023/07/23 11:05:40;;;;;;;8.63;4.50;;;31.80;1.00;;;;;;5022743;28;20943;-63
2023/07/23 11:08:14;;;;;;;7.67;3.30;;;31.60;1.00;;;;;;5021940;28;20504;-63
2023/07/23 11:10:54;;;;;;;8.10;3.67;;;31.60;1.00;;;;;;5023760;28;20469;-63
2023/07/23 11:13:22;;;;;;;7.00;4.53;;;31.50;1.00;;;;;;5023571;28;20458;-62
2023/07/23 11:15:48;;;;;;;7.03;4.00;;;31.60;1.00;;;;;;5022338;28;20497;-63
2023/07/23 11:18:17;;;;;;;9.23;4.30;;;31.70;1.00;;;;;;5020934;28;20478;-62
2023/07/23 11:20:47;;;;;;;7.27;4.37;;;31.70;1.00;;;;;;5021082;28;20459;-63
2023/07/23 11:23:16;;;;;;;11.03;4.97;;;31.70;1.00;;;;;;5022117;28;20495;-62
2023/07/23 11:25:42;;;;;;;7.27;5.10;;;31.80;1.00;;;;;;5019969;28;20474;-63
2023/07/23 11:28:09;;;;;;;9.30;5.13;;;31.70;1.00;;;;;;5019410;28;20992;-62
2023/07/23 11:30:36;;;;;;;10.10;4.90;;;31.80;1.00;;;;;;5018327;28;20470;-63
2023/07/23 11:33:04;;;;;;;9.27;5.07;;;31.80;1.00;;;;;;5023937;28;20463;-63
2023/07/23 11:35:33;;;;;;;9.50;5.40;;;31.70;1.00;;;;;;5021460;28;20464;-63
2023/07/23 11:38:02;;;;;;;9.17;5.13;;;31.60;1.00;;;;;;5020841;28;20455;-63
2023/07/23 11:40:28;;;;;;;8.50;5.40;;;31.40;1.00;;;;;;5020072;28;20955;-63
2023/07/23 11:42:56;;;;;;;9.80;6.50;;;31.20;1.00;;;;;;5020304;28;20762;-62
2023/07/23 11:45:23;;;;;;;9.37;5.93;;;31.10;1.00;;;;;;5022789;28;20483;-62
2023/07/23 11:47:51;;;;;;;9.93;5.80;;;31.00;1.00;;;;;;5023703;28;20482;-63
2023/07/23 11:50:18;;;;;;;9.47;5.40;;;30.90;1.00;;;;;;5025609;28;20932;-63
2023/07/23 11:52:47;;;;;;;10.93;5.80;;;30.80;1.00;;;;;;5020274;28;20460;-62
2023/07/23 11:55:21;;;;;;;9.67;5.33;;;30.60;1.00;;;;;;5015603;28;20491;-62
2023/07/23 11:57:52;;;;;;;8.43;5.70;;;30.40;1.00;;;;;;5019819;28;20461;-65
2023/07/23 12:00:26;;;;;;;20.23;6.27;;;30.40;1.00;;;;;;5021302;28;20503;-63
2023/07/23 12:02:54;;;;;;;11.00;5.93;;;30.40;1.00;;;;;;5019942;28;20470;-63
2023/07/23 12:05:21;;;;;;;9.07;5.33;;;30.40;1.00;;;;;;5022094;28;20486;-62
2023/07/23 12:07:52;;;;;;;10.70;5.23;;;30.30;1.00;;;;;;5021312;28;20479;-63
2023/07/23 12:10:19;;;;;;;8.97;5.53;;;30.20;1.00;;;;;;5027853;28;20481;-64
2023/07/23 12:12:46;;;;;;;9.07;4.77;;;30.30;1.00;;;;;;5028373;28;20462;-64
2023/07/23 12:15:13;;;;;;;8.53;5.33;;;30.30;1.00;;;;;;5012767;28;20590;-64
2023/07/23 12:17:41;;;;;;;8.77;5.10;;;30.30;1.00;;;;;;5022914;28;20458;-64
2023/07/23 12:20:09;;;;;;;10.50;5.70;;;30.40;1.00;;;;;;5024247;28;20474;-64
2023/07/23 12:22:50;;;;;;;10.10;5.73;;;30.50;1.00;;;;;;5022760;28;21273;-64
2023/07/23 12:25:17;;;;;;;9.23;5.90;;;30.60;1.00;;;;;;5017047;28;20483;-64
2023/07/23 12:27:44;;;;;;;9.07;5.40;;;30.50;1.00;;;;;;5020367;28;20849;-64
2023/07/23 12:30:11;;;;;;;9.60;5.67;;;30.60;1.00;;;;;;5023821;28;20471;-64
2023/07/23 12:32:38;;;;;;;9.93;5.57;;;30.60;1.00;;;;;;5018492;28;20983;-64
2023/07/23 12:35:06;;;;;;;12.20;6.53;;;30.50;1.00;;;;;;5020632;28;20857;-64
2023/07/23 12:37:34;;;;;;;13.30;6.53;;;30.50;1.00;;;;;;5024323;28;20458;-64
2023/07/23 12:40:07;;;;;;;8.23;4.70;;;30.40;1.00;;;;;;5018725;28;20908;-64
2023/07/23 12:42:33;;;;;;;11.43;5.70;;;30.30;1.00;;;;;;5015839;28;20913;-64
2023/07/23 12:45:01;;;;;;;11.00;6.20;;;30.00;1.00;;;;;;5021172;28;20483;-64
2023/07/23 12:47:29;;;;;;;10.83;5.93;;;29.80;1.00;;;;;;5024232;28;20541;-64
2023/07/23 12:49:58;;;;;;;9.80;5.40;;;29.70;1.00;;;;;;5021490;28;20486;-64
2023/07/23 12:52:25;;;;;;;12.00;7.00;;;29.60;1.00;;;;;;5018189;28;20960;-64
2023/07/23 12:54:52;;;;;;;10.57;6.03;;;29.60;1.00;;;;;;5016315;28;20483;-68